createdAt,value
2023-04-07T00:01:52.920Z,30
2023-04-07T00:08:00.452Z,31.2
2023-04-07T00:13:52.230Z,26.4
2023-04-07T00:19:45.511Z,26.8
2023-04-07T00:25:37.694Z,28.7
2023-04-07T00:31:29.902Z,30.1
2023-04-07T00:37:20.929Z,29.9
2023-04-07T00:43:11.983Z,30.3
2023-04-07T00:49:02.968Z,30.9
2023-04-07T00:54:55.909Z,29.7
2023-04-07T01:00:48.682Z,32.3
2023-04-07T01:06:44.905Z,29.9
2023-04-07T01:12:37.412Z,34.1
2023-04-07T01:18:28.502Z,35.7
2023-04-07T01:24:19.483Z,34.8
2023-04-07T01:30:12.564Z,36.1
2023-04-07T01:36:04.226Z,36.5
2023-04-07T01:42:24.559Z,37.1
2023-04-07T04:56:50.083Z,57
2023-04-07T05:39:28.311Z,68
2023-04-07T05:58:11.438Z,70.6
2023-04-07T06:04:30.990Z,65.7
2023-04-07T06:28:46.289Z,66.9
2023-04-07T06:41:18.833Z,67.3
2023-04-07T07:07:12.158Z,64.1
2023-04-07T07:13:57.215Z,59.1
2023-04-07T07:20:13.709Z,59.7
2023-04-07T08:21:32.217Z,45.9
2023-04-07T08:27:31.154Z,48.2
2023-04-07T08:33:34.348Z,41.2
2023-04-07T09:52:53.662Z,25.6
2023-04-07T17:10:38.720Z,33
2023-04-07T17:22:54.952Z,35.7
2023-04-07T18:50:29.748Z,37.8
2023-04-07T18:56:42.346Z,32.3
2023-04-07T19:02:50.211Z,35.7
2023-04-07T19:15:00.100Z,33.4
2023-04-07T19:20:54.837Z,33.7
2023-04-07T22:25:33.863Z,38.6
2023-04-07T22:31:25.042Z,41.1
2023-04-07T22:37:16.741Z,38.4
2023-04-07T22:43:09.108Z,36.6
2023-04-07T22:49:00.860Z,38.7
2023-04-07T22:54:52.817Z,44.9
2023-04-07T23:00:45.415Z,41.5
2023-04-07T23:06:37.724Z,41
2023-04-07T23:12:30.931Z,41.7
2023-04-07T23:18:24.513Z,38.4
2023-04-07T23:24:18.099Z,39.1
2023-04-07T23:30:10.465Z,42.5
2023-04-07T23:36:05.112Z,39.6
2023-04-07T23:41:57.416Z,37.7
2023-04-07T23:47:50.916Z,42.4
2023-04-07T23:53:43.219Z,47.4
2023-04-07T23:59:35.112Z,51
